This is the latest recevied weather packets stored in our database for station/object DC4XK-10. If no packets are shown the sender has not sent any weather packets the latest 10 day(s).
| Time | Temp. | Humidity | Pressure | Rain* | Wind** | Luminosity | Snow |
|---|---|---|---|---|---|---|---|
| 1777800531 | 18.33° C | 82% | 1010.4 hPa | 0 mm | 0 m/s | - | - |
| 1777799930 | 18.33° C | 81% | 1010.2 hPa | 0 mm | 0 m/s | - | - |
| 1777799333 | 17.78° C | 83% | 1010.3 hPa | 0 mm | 0 m/s | - | - |
| 1777798731 | 17.78° C | 84% | 1010 hPa | 0 mm | 0.45 m/s, 215° | - | - |
| 1777798131 | 17.78° C | 84% | 1010.1 hPa | 0 mm | 0 m/s | - | - |
| 1777797533 | 17.78° C | 83% | 1010.2 hPa | 0 mm | 1.79 m/s, 192° | - | - |
| 1777796931 | 17.78° C | 85% | 1010.2 hPa | 0 mm | 1.34 m/s, 180° | - | - |
| 1777796331 | 17.22° C | 86% | 1010.3 hPa | 0 mm | 0 m/s | - | - |
| 1777795730 | 16.67° C | 89% | 1010.3 hPa | 0 mm | 0 m/s | - | - |
| 1777795131 | 16.11° C | 89% | 1010.3 hPa | 0 mm | 0.45 m/s, 202° | - | - |
| 1777794531 | 16.11° C | 89% | 1010.5 hPa | 0 mm | 1.34 m/s, 214° | - | - |
| 1777793930 | 16.11° C | 90% | 1010.5 hPa | 0 mm | 1.34 m/s, 179° | - | - |
| 1777793331 | 16.11° C | 92% | 1010.3 hPa | 0 mm | 0 m/s | - | - |
| 1777792731 | 15.56° C | 96% | 1010.2 hPa | 0 mm | 0 m/s | - | - |
| 1777792130 | 14.44° C | 99% | 1010.3 hPa | 0 mm | 0 m/s | - | - |
| 1777791531 | 14.44° C | 99% | 1010.6 hPa | 0 mm | 0 m/s | - | - |
| 1777790932 | 14.44° C | 99% | 1010.6 hPa | 0 mm | 0 m/s | - | - |
| 1777790331 | 13.89° C | 99% | 1010.6 hPa | 0 mm | 0 m/s | - | - |
| 1777789731 | 13.89° C | 99% | 1010.8 hPa | 0 mm | 0 m/s | - | - |
| 1777789133 | 13.33° C | 99% | 1010.4 hPa | 0 mm | 0 m/s | - | - |
| 1777788531 | 13.33° C | 99% | 1010.8 hPa | 0 mm | 0 m/s | - | - |
| 1777787931 | 13.33° C | 99% | 1010.6 hPa | 0 mm | 0 m/s | - | - |
| 1777787333 | 13.33° C | 99% | 1010.6 hPa | 0 mm | 0 m/s | - | - |
| 1777786730 | 13.33° C | 99% | 1010.4 hPa | 0 mm | 0 m/s | - | - |
| 1777786131 | 12.78° C | 99% | 1010.3 hPa | 0 mm | 0 m/s | - | - |
* Rain latest hour (hover to see other rain measurements)
** Current wind speed in m/s (hover to see current wind gust speed)